Aviation Digital Data Service (ADDS)

Output produced by METARs form (1136 UTC 25 June 2019)
found at http://www.aviationweather.gov/metar/data/
 
METAR text: ZUUU 251100Z VRB01MPS 9999 FEW013 SCT020 24/22 Q1008 NOSIG
Conditions at: ZUUU (CHENGDU , CN) observed 1100 UTC 25 June 2019
Temperature: 24.0°C (75°F)
Dewpoint: 22.0°C (72°F) [RH = 89%]
Pressure (altimeter): 29.76 inches Hg (1008.0 mb)
Winds: variable direction winds at 2 MPH (2 knots; 1.0 m/s)
Visibility: 6 or more miles (10+ km)
Ceiling: at least 12,000 feet AGL
Clouds: few clouds at 1300 feet AGL
scattered clouds at 2000 feet AGL
Weather: no significant weather observed at this time

METAR text: ZUUU 251000Z 21002MPS 9999 -SHRA FEW013 SCT020 24/22 Q1009 NOSIG
Conditions at: ZUUU (CHENGDU , CN) observed 1000 UTC 25 June 2019
Temperature: 24.0°C (75°F)
Dewpoint: 22.0°C (72°F) [RH = 89%]
Pressure (altimeter): 29.79 inches Hg (1009.0 mb)
Winds: from the SSW (210 degrees) at 5 MPH (4 knots; 2.1 m/s)
Visibility: 6 or more miles (10+ km)
Ceiling: at least 12,000 feet AGL
Clouds: few clouds at 1300 feet AGL
scattered clouds at 2000 feet AGL
Weather: -SHRA  (light rain showers)

METAR text: ZUUU 250900Z VRB01MPS 9999 -SHRA FEW013 SCT020 24/22 Q1009 NOSIG
Conditions at: ZUUU (CHENGDU , CN) observed 0900 UTC 25 June 2019
Temperature: 24.0°C (75°F)
Dewpoint: 22.0°C (72°F) [RH = 89%]
Pressure (altimeter): 29.79 inches Hg (1009.0 mb)
Winds: variable direction winds at 2 MPH (2 knots; 1.0 m/s)
Visibility: 6 or more miles (10+ km)
Ceiling: at least 12,000 feet AGL
Clouds: few clouds at 1300 feet AGL
scattered clouds at 2000 feet AGL
Weather: -SHRA  (light rain showers)

METAR text: ZUUU 250800Z VRB01MPS 9999 FEW013 SCT020 24/22 Q1009 NOSIG
Conditions at: ZUUU (CHENGDU , CN) observed 0800 UTC 25 June 2019
Temperature: 24.0°C (75°F)
Dewpoint: 22.0°C (72°F) [RH = 89%]
Pressure (altimeter): 29.79 inches Hg (1009.0 mb)
Winds: variable direction winds at 2 MPH (2 knots; 1.0 m/s)
Visibility: 6 or more miles (10+ km)
Ceiling: at least 12,000 feet AGL
Clouds: few clouds at 1300 feet AGL
scattered clouds at 2000 feet AGL
Weather: no significant weather observed at this time

METAR text: ZUUU 250700Z 00000MPS 9999 -SHRA SCT020 25/21 Q1009 NOSIG
Conditions at: ZUUU (CHENGDU , CN) observed 0700 UTC 25 June 2019
Temperature: 25.0°C (77°F)
Dewpoint: 21.0°C (70°F) [RH = 79%]
Pressure (altimeter): 29.79 inches Hg (1009.0 mb)
Winds: calm
Visibility: 6 or more miles (10+ km)
Ceiling: at least 12,000 feet AGL
Clouds: scattered clouds at 2000 feet AGL
Weather: -SHRA  (light rain showers)

METAR text: ZUUU 250600Z VRB01MPS 9999 -SHRA FEW012 SCT023 24/21 Q1010 NOSIG
Conditions at: ZUUU (CHENGDU , CN) observed 0600 UTC 25 June 2019
Temperature: 24.0°C (75°F)
Dewpoint: 21.0°C (70°F) [RH = 83%]
Pressure (altimeter): 29.82 inches Hg (1010.0 mb)
Winds: variable direction winds at 2 MPH (2 knots; 1.0 m/s)
Visibility: 6 or more miles (10+ km)
Ceiling: at least 12,000 feet AGL
Clouds: few clouds at 1200 feet AGL
scattered clouds at 2300 feet AGL
Weather: -SHRA  (light rain showers)

METAR text: ZUUU 250500Z VRB02MPS 9999 -SHRA FEW009 SCT023 23/21 Q1010 NOSIG
Conditions at: ZUUU (CHENGDU , CN) observed 0500 UTC 25 June 2019
Temperature: 23.0°C (73°F)
Dewpoint: 21.0°C (70°F) [RH = 89%]
Pressure (altimeter): 29.82 inches Hg (1010.0 mb)
Winds: variable direction winds at 5 MPH (4 knots; 2.1 m/s)
Visibility: 6 or more miles (10+ km)
Ceiling: at least 12,000 feet AGL
Clouds: few clouds at 900 feet AGL
scattered clouds at 2300 feet AGL
Weather: -SHRA  (light rain showers)

METAR text: ZUUU 250400Z 13002MPS 050V150 5000 -SHRA BR FEW007 SCT023 22/22 Q1011 NOSIG
Conditions at: ZUUU (CHENGDU , CN) observed 0400 UTC 25 June 2019
Temperature: 22.0°C (72°F)
Dewpoint: 22.0°C (72°F) [RH = 100%]
Pressure (altimeter): 29.85 inches Hg (1011.0 mb)
Winds: from the SE (130 degrees) at 5 MPH (4 knots; 2.1 m/s)
Visibility: 3 miles ( 5 km)
Ceiling: at least 12,000 feet AGL
Clouds: few clouds at 700 feet AGL
scattered clouds at 2300 feet AGL
Weather: -SHRA BR  (light rain showers, mist)

METAR text: ZUUU 250300Z 13003MPS 060V160 4500 -SHRA BR FEW007 SCT023 22/21 Q1011 NOSIG
Conditions at: ZUUU (CHENGDU , CN) observed 0300 UTC 25 June 2019
Temperature: 22.0°C (72°F)
Dewpoint: 21.0°C (70°F) [RH = 94%]
Pressure (altimeter): 29.85 inches Hg (1011.0 mb)
Winds: from the SE (130 degrees) at 7 MPH (6 knots; 3.1 m/s)
Visibility: 2.80 miles (4.51 km)
Ceiling: at least 12,000 feet AGL
Clouds: few clouds at 700 feet AGL
scattered clouds at 2300 feet AGL
Weather: -SHRA BR  (light rain showers, mist)

METAR text: ZUUU 250200Z 36002MPS 330V040 2700 -SHRA BR FEW007 SCT033 22/22 Q1011 BECMG TL0330 3000
Conditions at: ZUUU (CHENGDU , CN) observed 0200 UTC 25 June 2019
Temperature: 22.0°C (72°F)
Dewpoint: 22.0°C (72°F) [RH = 100%]
Pressure (altimeter): 29.85 inches Hg (1011.0 mb)
Winds: from the N (360 degrees) at 5 MPH (4 knots; 2.1 m/s)
Visibility: 1.68 miles (2.70 km)
Ceiling: at least 12,000 feet AGL
Clouds: few clouds at 700 feet AGL
scattered clouds at 3300 feet AGL
Weather: -SHRA BR  (light rain showers, mist)

METAR text: ZUUU 250100Z 01002MPS 3500 -SHRA BR FEW007 SCT033 22/22 Q1011 NOSIG
Conditions at: ZUUU (CHENGDU , CN) observed 0100 UTC 25 June 2019
Temperature: 22.0°C (72°F)
Dewpoint: 22.0°C (72°F) [RH = 100%]
Pressure (altimeter): 29.85 inches Hg (1011.0 mb)
Winds: from the N (10 degrees) at 5 MPH (4 knots; 2.1 m/s)
Visibility: 2.17 miles (3.49 km)
Ceiling: at least 12,000 feet AGL
Clouds: few clouds at 700 feet AGL
scattered clouds at 3300 feet AGL
Weather: -SHRA BR  (light rain showers, mist)

METAR text: ZUUU 250000Z 35002MPS 310V020 5000 -SHRA BR FEW009 SCT033 22/21 Q1010 NOSIG
Conditions at: ZUUU (CHENGDU , CN) observed 0000 UTC 25 June 2019
Temperature: 22.0°C (72°F)
Dewpoint: 21.0°C (70°F) [RH = 94%]
Pressure (altimeter): 29.82 inches Hg (1010.0 mb)
Winds: from the N (350 degrees) at 5 MPH (4 knots; 2.1 m/s)
Visibility: 3 miles ( 5 km)
Ceiling: at least 12,000 feet AGL
Clouds: few clouds at 900 feet AGL
scattered clouds at 3300 feet AGL
Weather: -SHRA BR  (light rain showers, mist)

METAR text: ZUUU 242300Z 01002MPS 340V050 5000 -SHRA BR FEW009 SCT026 22/21 Q1010 NOSIG
Conditions at: ZUUU (CHENGDU , CN) observed 2300 UTC 24 June 2019
Temperature: 22.0°C (72°F)
Dewpoint: 21.0°C (70°F) [RH = 94%]
Pressure (altimeter): 29.82 inches Hg (1010.0 mb)
Winds: from the N (10 degrees) at 5 MPH (4 knots; 2.1 m/s)
Visibility: 3 miles ( 5 km)
Ceiling: at least 12,000 feet AGL
Clouds: few clouds at 900 feet AGL
scattered clouds at 2600 feet AGL
Weather: -SHRA BR  (light rain showers, mist)

METAR text: ZUUU 242200Z 36002MPS 330V030 7000 FEW009 SCT020 22/21 Q1009 NOSIG
Conditions at: ZUUU (CHENGDU , CN) observed 2200 UTC 24 June 2019
Temperature: 22.0°C (72°F)
Dewpoint: 21.0°C (70°F) [RH = 94%]
Pressure (altimeter): 29.79 inches Hg (1009.0 mb)
Winds: from the N (360 degrees) at 5 MPH (4 knots; 2.1 m/s)
Visibility: 4 miles ( 7 km)
Ceiling: at least 12,000 feet AGL
Clouds: few clouds at 900 feet AGL
scattered clouds at 2000 feet AGL
Weather: no significant weather observed at this time

METAR text: ZUUU 242100Z 01002MPS 340V050 8000 FEW009 SCT020 22/21 Q1009 NOSIG
Conditions at: ZUUU (CHENGDU , CN) observed 2100 UTC 24 June 2019
Temperature: 22.0°C (72°F)
Dewpoint: 21.0°C (70°F) [RH = 94%]
Pressure (altimeter): 29.79 inches Hg (1009.0 mb)
Winds: from the N (10 degrees) at 5 MPH (4 knots; 2.1 m/s)
Visibility: 5 miles ( 8 km)
Ceiling: at least 12,000 feet AGL
Clouds: few clouds at 900 feet AGL
scattered clouds at 2000 feet AGL
Weather: no significant weather observed at this time

METAR text: ZUUU 242000Z 01002MPS 330V040 8000 FEW009 SCT020 22/21 Q1009 NOSIG
Conditions at: ZUUU (CHENGDU , CN) observed 2000 UTC 24 June 2019
Temperature: 22.0°C (72°F)
Dewpoint: 21.0°C (70°F) [RH = 94%]
Pressure (altimeter): 29.79 inches Hg (1009.0 mb)
Winds: from the N (10 degrees) at 5 MPH (4 knots; 2.1 m/s)
Visibility: 5 miles ( 8 km)
Ceiling: at least 12,000 feet AGL
Clouds: few clouds at 900 feet AGL
scattered clouds at 2000 feet AGL
Weather: no significant weather observed at this time

METAR text: ZUUU 241900Z 36002MPS 8000 BKN021 23/21 Q1009 NOSIG
Conditions at: ZUUU (CHENGDU , CN) observed 1900 UTC 24 June 2019
Temperature: 23.0°C (73°F)
Dewpoint: 21.0°C (70°F) [RH = 89%]
Pressure (altimeter): 29.79 inches Hg (1009.0 mb)
Winds: from the N (360 degrees) at 5 MPH (4 knots; 2.1 m/s)
Visibility: 5 miles ( 8 km)
Ceiling: 2100 feet AGL
Clouds: broken clouds at 2100 feet AGL
Weather: no significant weather observed at this time

METAR text: ZUUU 241800Z VRB01MPS 8000 -SHRA BKN021 22/21 Q1010 NOSIG
Conditions at: ZUUU (CHENGDU , CN) observed 1800 UTC 24 June 2019
Temperature: 22.0°C (72°F)
Dewpoint: 21.0°C (70°F) [RH = 94%]
Pressure (altimeter): 29.82 inches Hg (1010.0 mb)
Winds: variable direction winds at 2 MPH (2 knots; 1.0 m/s)
Visibility: 5 miles ( 8 km)
Ceiling: 2100 feet AGL
Clouds: broken clouds at 2100 feet AGL
Weather: -SHRA  (light rain showers)

METAR text: ZUUU 241700Z 03003MPS 8000 -SHRA BKN021 22/22 Q1010 NOSIG
Conditions at: ZUUU (CHENGDU , CN) observed 1700 UTC 24 June 2019
Temperature: 22.0°C (72°F)
Dewpoint: 22.0°C (72°F) [RH = 100%]
Pressure (altimeter): 29.82 inches Hg (1010.0 mb)
Winds: from the NNE (30 degrees) at 7 MPH (6 knots; 3.1 m/s)
Visibility: 5 miles ( 8 km)
Ceiling: 2100 feet AGL
Clouds: broken clouds at 2100 feet AGL
Weather: -SHRA  (light rain showers)

METAR text: ZUUU 241600Z 36002MPS 320V050 9999 BKN021 23/22 Q1010 NOSIG
Conditions at: ZUUU (CHENGDU , CN) observed 1600 UTC 24 June 2019
Temperature: 23.0°C (73°F)
Dewpoint: 22.0°C (72°F) [RH = 94%]
Pressure (altimeter): 29.82 inches Hg (1010.0 mb)
Winds: from the N (360 degrees) at 5 MPH (4 knots; 2.1 m/s)
Visibility: 6 or more miles (10+ km)
Ceiling: 2100 feet AGL
Clouds: broken clouds at 2100 feet AGL
Weather: no significant weather observed at this time

METAR text: ZUUU 241500Z VRB01MPS 8000 SCT023 23/22 Q1010 NOSIG
Conditions at: ZUUU (CHENGDU , CN) observed 1500 UTC 24 June 2019
Temperature: 23.0°C (73°F)
Dewpoint: 22.0°C (72°F) [RH = 94%]
Pressure (altimeter): 29.82 inches Hg (1010.0 mb)
Winds: variable direction winds at 2 MPH (2 knots; 1.0 m/s)
Visibility: 5 miles ( 8 km)
Ceiling: at least 12,000 feet AGL
Clouds: scattered clouds at 2300 feet AGL
Weather: no significant weather observed at this time

METAR text: ZUUU 241400Z 20002MPS 8000 SCT023 23/22 Q1010 NOSIG
Conditions at: ZUUU (CHENGDU , CN) observed 1400 UTC 24 June 2019
Temperature: 23.0°C (73°F)
Dewpoint: 22.0°C (72°F) [RH = 94%]
Pressure (altimeter): 29.82 inches Hg (1010.0 mb)
Winds: from the SSW (200 degrees) at 5 MPH (4 knots; 2.1 m/s)
Visibility: 5 miles ( 8 km)
Ceiling: at least 12,000 feet AGL
Clouds: scattered clouds at 2300 feet AGL
Weather: no significant weather observed at this time

METAR text: ZUUU 241300Z 24002MPS 210V270 9999 SCT023 24/22 Q1009 NOSIG
Conditions at: ZUUU (CHENGDU , CN) observed 1300 UTC 24 June 2019
Temperature: 24.0°C (75°F)
Dewpoint: 22.0°C (72°F) [RH = 89%]
Pressure (altimeter): 29.79 inches Hg (1009.0 mb)
Winds: from the WSW (240 degrees) at 5 MPH (4 knots; 2.1 m/s)
Visibility: 6 or more miles (10+ km)
Ceiling: at least 12,000 feet AGL
Clouds: scattered clouds at 2300 feet AGL
Weather: no significant weather observed at this time

METAR text: ZUUU 241200Z 22002MPS 9999 SCT023 23/22 Q1009 NOSIG
Conditions at: ZUUU (CHENGDU , CN) observed 1200 UTC 24 June 2019
Temperature: 23.0°C (73°F)
Dewpoint: 22.0°C (72°F) [RH = 94%]
Pressure (altimeter): 29.79 inches Hg (1009.0 mb)
Winds: from the SW (220 degrees) at 5 MPH (4 knots; 2.1 m/s)
Visibility: 6 or more miles (10+ km)
Ceiling: at least 12,000 feet AGL
Clouds: scattered clouds at 2300 feet AGL
Weather: no significant weather observed at this time

METAR text: ZUUU 241100Z 00000MPS 9999 SCT026 24/21 Q1008 NOSIG
Conditions at: ZUUU (CHENGDU , CN) observed 1100 UTC 24 June 2019
Temperature: 24.0°C (75°F)
Dewpoint: 21.0°C (70°F) [RH = 83%]
Pressure (altimeter): 29.76 inches Hg (1008.0 mb)
Winds: calm
Visibility: 6 or more miles (10+ km)
Ceiling: at least 12,000 feet AGL
Clouds: scattered clouds at 2600 feet AGL
Weather: no significant weather observed at this time

METAR text: ZUUU 241000Z VRB01MPS 9999 FEW020 SCT040 24/21 Q1008 NOSIG
Conditions at: ZUUU (CHENGDU , CN) observed 1000 UTC 24 June 2019
Temperature: 24.0°C (75°F)
Dewpoint: 21.0°C (70°F) [RH = 83%]
Pressure (altimeter): 29.76 inches Hg (1008.0 mb)
Winds: variable direction winds at 2 MPH (2 knots; 1.0 m/s)
Visibility: 6 or more miles (10+ km)
Ceiling: at least 12,000 feet AGL
Clouds: few clouds at 2000 feet AGL
scattered clouds at 4000 feet AGL
Weather: no significant weather observed at this time

METAR text: ZUUU 240900Z VRB01MPS 9999 FEW020 SCT033 24/21 Q1008 NOSIG
Conditions at: ZUUU (CHENGDU , CN) observed 0900 UTC 24 June 2019
Temperature: 24.0°C (75°F)
Dewpoint: 21.0°C (70°F) [RH = 83%]
Pressure (altimeter): 29.76 inches Hg (1008.0 mb)
Winds: variable direction winds at 2 MPH (2 knots; 1.0 m/s)
Visibility: 6 or more miles (10+ km)
Ceiling: at least 12,000 feet AGL
Clouds: few clouds at 2000 feet AGL
scattered clouds at 3300 feet AGL
Weather: no significant weather observed at this time

METAR text: ZUUU 240800Z 01002MPS 340V040 9999 FEW009 SCT013 23/21 Q1008 NOSIG
Conditions at: ZUUU (CHENGDU , CN) observed 0800 UTC 24 June 2019
Temperature: 23.0°C (73°F)
Dewpoint: 21.0°C (70°F) [RH = 89%]
Pressure (altimeter): 29.76 inches Hg (1008.0 mb)
Winds: from the N (10 degrees) at 5 MPH (4 knots; 2.1 m/s)
Visibility: 6 or more miles (10+ km)
Ceiling: at least 12,000 feet AGL
Clouds: few clouds at 900 feet AGL
scattered clouds at 1300 feet AGL
Weather: no significant weather observed at this time

METAR text: ZUUU 240700Z 06002MPS 330V120 8000 -SHRA FEW006 SCT013 BKN026 23/21 Q1009 NOSIG
Conditions at: ZUUU (CHENGDU , CN) observed 0700 UTC 24 June 2019
Temperature: 23.0°C (73°F)
Dewpoint: 21.0°C (70°F) [RH = 89%]
Pressure (altimeter): 29.79 inches Hg (1009.0 mb)
Winds: from the ENE (60 degrees) at 5 MPH (4 knots; 2.1 m/s)
Visibility: 5 miles ( 8 km)
Ceiling: 2600 feet AGL
Clouds: few clouds at 600 feet AGL
scattered clouds at 1300 feet AGL
broken clouds at 2600 feet AGL
Weather: -SHRA  (light rain showers)

METAR text: ZUUU 240600Z 03003MPS 010V070 9999 -SHRA FEW006 SCT013 FEW026TCU 22/21 Q1009 NOSIG
Conditions at: ZUUU (CHENGDU , CN) observed 0600 UTC 24 June 2019
Temperature: 22.0°C (72°F)
Dewpoint: 21.0°C (70°F) [RH = 94%]
Pressure (altimeter): 29.79 inches Hg (1009.0 mb)
Winds: from the NNE (30 degrees) at 7 MPH (6 knots; 3.1 m/s)
Visibility: 6 or more miles (10+ km)
Ceiling: at least 12,000 feet AGL
Clouds: few clouds at 600 feet AGL
scattered clouds at 1300 feet AGL
few clouds at 2600 feet AGL
Weather: -SHRA  (light rain showers)

METAR text: ZUUU 240500Z 02003MPS 9999 FEW005 FEW026TCU SCT026 22/21 Q1010 NOSIG
Conditions at: ZUUU (CHENGDU , CN) observed 0500 UTC 24 June 2019
Temperature: 22.0°C (72°F)
Dewpoint: 21.0°C (70°F) [RH = 94%]
Pressure (altimeter): 29.82 inches Hg (1010.0 mb)
Winds: from the NNE (20 degrees) at 7 MPH (6 knots; 3.1 m/s)
Visibility: 6 or more miles (10+ km)
Ceiling: at least 12,000 feet AGL
Clouds: few clouds at 500 feet AGL
few clouds at 2600 feet AGL
scattered clouds at 2600 feet AGL
Weather: no significant weather observed at this time

METAR text: ZUUU 240400Z 01003MPS 330V040 5000 -SHRA BR SCT010 FEW026TCU SCT026 21/21 Q1010 NOSIG
Conditions at: ZUUU (CHENGDU , CN) observed 0400 UTC 24 June 2019
Temperature: 21.0°C (70°F)
Dewpoint: 21.0°C (70°F) [RH = 100%]
Pressure (altimeter): 29.82 inches Hg (1010.0 mb)
Winds: from the N (10 degrees) at 7 MPH (6 knots; 3.1 m/s)
Visibility: 3 miles ( 5 km)
Ceiling: at least 12,000 feet AGL
Clouds: scattered clouds at 1000 feet AGL
few clouds at 2600 feet AGL
scattered clouds at 2600 feet AGL
Weather: -SHRA BR  (light rain showers, mist)

METAR text: ZUUU 240300Z 36002MPS 320V040 6000 -SHRA FEW010 FEW026TCU SCT026 21/21 Q1010 NOSIG
Conditions at: ZUUU (CHENGDU , CN) observed 0300 UTC 24 June 2019
Temperature: 21.0°C (70°F)
Dewpoint: 21.0°C (70°F) [RH = 100%]
Pressure (altimeter): 29.82 inches Hg (1010.0 mb)
Winds: from the N (360 degrees) at 5 MPH (4 knots; 2.1 m/s)
Visibility: 4 miles ( 6 km)
Ceiling: at least 12,000 feet AGL
Clouds: few clouds at 1000 feet AGL
few clouds at 2600 feet AGL
scattered clouds at 2600 feet AGL
Weather: -SHRA  (light rain showers)

METAR text: ZUUU 240200Z 36002MPS 310V040 6000 -SHRA FEW010 FEW026TCU SCT026 21/20 Q1010 NOSIG
Conditions at: ZUUU (CHENGDU , CN) observed 0200 UTC 24 June 2019
Temperature: 21.0°C (70°F)
Dewpoint: 20.0°C (68°F) [RH = 94%]
Pressure (altimeter): 29.82 inches Hg (1010.0 mb)
Winds: from the N (360 degrees) at 5 MPH (4 knots; 2.1 m/s)
Visibility: 4 miles ( 6 km)
Ceiling: at least 12,000 feet AGL
Clouds: few clouds at 1000 feet AGL
few clouds at 2600 feet AGL
scattered clouds at 2600 feet AGL
Weather: -SHRA  (light rain showers)

METAR text: ZUUU 240100Z 36002MPS 320V030 6000 -SHRA FEW010 FEW026TCU SCT026 21/20 Q1010 NOSIG
Conditions at: ZUUU (CHENGDU , CN) observed 0100 UTC 24 June 2019
Temperature: 21.0°C (70°F)
Dewpoint: 20.0°C (68°F) [RH = 94%]
Pressure (altimeter): 29.82 inches Hg (1010.0 mb)
Winds: from the N (360 degrees) at 5 MPH (4 knots; 2.1 m/s)
Visibility: 4 miles ( 6 km)
Ceiling: at least 12,000 feet AGL
Clouds: few clouds at 1000 feet AGL
few clouds at 2600 feet AGL
scattered clouds at 2600 feet AGL
Weather: -SHRA  (light rain showers)

METAR text: ZUUU 240000Z 36002MPS 320V040 6000 -SHRA FEW030TCU BKN030 21/20 Q1009 NOSIG
Conditions at: ZUUU (CHENGDU , CN) observed 0000 UTC 24 June 2019
Temperature: 21.0°C (70°F)
Dewpoint: 20.0°C (68°F) [RH = 94%]
Pressure (altimeter): 29.79 inches Hg (1009.0 mb)
Winds: from the N (360 degrees) at 5 MPH (4 knots; 2.1 m/s)
Visibility: 4 miles ( 6 km)
Ceiling: 3000 feet AGL
Clouds: few clouds at 3000 feet AGL
broken clouds at 3000 feet AGL
Weather: -SHRA  (light rain showers)

Forecast for: ZUUU (CHENGDU , CN)
Text: TAF ZUUU 250801Z 2512/2612 20003MPS 5000 BR SCT040 TX25/2607Z TN21/2522Z
Forecast period: 1200 UTC 25 June 2019 to 1200 UTC 26 June 2019
Forecast type: FROM: standard forecast or significant change
Winds: from the SSW (200 degrees) at 7 MPH (6 knots; 3.1 m/s)
Visibility: 3 miles (5 km)
Ceiling: at least 12,000 feet AGL
Clouds: scattered clouds at 4000 feet AGL
Weather: BR  (mist)
Text: TEMPO 2610/2612 -SHRA
Forecast period: 1000 to 1200 UTC 26 June 2019
Forecast type: TEMPORARY: The following changes expected for less than half the time period
Visibility: missing
Ceiling: unknown
Clouds: missing
Weather: -SHRA  (light rain showers)